Marina Lobra — IXVN — position and weather

sailwx.info

Track history (hours):
 
Tides and Currents Weather Stations Pressure Air Temp Water Temp Dewpoint Dewpoint Depression Visibility Wind Speed Wind Dir Waves Ship Positions

Marina Lobra

Last reported at 2014-Nov-21 09:33 UTC. Time now 2014-Nov-23 09:52 UTC.
Position N 40°50' E 014°16'.

Length 56 m; draft 2.4 m.

Type: Ship (hazmat cat C). MMSI: 247188300.

Date/timePositionNaut miles runAvg speedWind from/ knotsBaromVisibWave heightAir tempDewpointWater temp
2014-Nov-21 09:33N 40°50' E 014°16'0 0.0
2014-Nov-21 08:33N 40°50' E 014°16'0 0.1
2014-Nov-21 01:16N 40°51' E 014°16'1 0.2
2014-Nov-20 22:11N 40°50' E 014°17'1 0.0
2014-Nov-20 11:25N 40°50' E 014°17'0 0.0
2014-Nov-20 10:33N 40°50' E 014°17'0 0.0
2014-Nov-20 08:31N 40°50' E 014°17'0 0.1
2014-Nov-20 07:33N 40°50' E 014°17'1 0.0
2014-Nov-19 08:14N 40°50' E 014°16'4 5.3
2014-Nov-19 07:33N 40°47' E 014°19'5 5.5
2014-Nov-19 06:33N 40°41' E 014°18'6 5.5
2014-Nov-19 05:33N 40°36' E 014°16'3 0.6
2014-Nov-19 00:27N 40°33' E 014°14'0 0.0
2014-Nov-18 23:33N 40°33' E 014°14'0 0.0
2014-Nov-18 22:32N 40°33' E 014°14'0 0.0
2014-Nov-18 21:33N 40°33' E 014°14'0 0.0
2014-Nov-18 20:33N 40°33' E 014°14'2 2.3
2014-Nov-18 19:33N 40°36' E 014°15'5 4.7
2014-Nov-18 18:33N 40°40' E 014°16'5 5.2
2014-Nov-18 17:33N 40°45' E 014°17'5 4.8
2014-Nov-18 16:33N 40°50' E 014°17'0 0.0
2014-Nov-18 15:32N 40°50' E 014°17'0 0.0
2014-Nov-18 14:18N 40°50' E 014°17'0 0.0
2014-Nov-18 13:33N 40°50' E 014°17'0 0.0
2014-Nov-18 12:25N 40°50' E 014°17'0 0.0
2014-Nov-18 11:10N 40°50' E 014°17'1 0.0
2014-Nov-17 12:31N 40°50' E 014°16'1 0.8
2014-Nov-17 11:34N 40°50' E 014°17'0 0.0
2014-Nov-17 10:28N 40°50' E 014°17'0 0.0
2014-Nov-17 09:15N 40°50' E 014°17'0 0.0
2014-Nov-15 08:29N 40°50' E 014°17'0 0.4
2014-Nov-15 07:33N 40°50' E 014°18'0 0.0
2014-Nov-14 11:33N 40°50' E 014°17'0 0.0
2014-Nov-14 08:16N 40°50' E 014°17'1 1.5
2014-Nov-14 07:25N 40°51' E 014°16'0 0.1
2014-Nov-14 01:32N 40°50' E 014°16'0 0.2
2014-Nov-13 23:10N 40°50' E 014°17'1 0.1
2014-Nov-13 15:32N 40°50' E 014°17'0 0.0
2014-Nov-13 14:11N 40°50' E 014°17'0 0.0
2014-Nov-13 13:33N 40°50' E 014°17'0 0.0
2014-Nov-13 12:32N 40°50' E 014°17'0 0.0
2014-Nov-13 11:31N 40°50' E 014°17'0 0.0
2014-Nov-13 10:31N 40°50' E 014°17'0 0.0
2014-Nov-12 16:30N 40°50' E 014°17'0 0.4
2014-Nov-12 15:30N 40°50' E 014°17'0 0.0
2014-Nov-12 14:33N 40°50' E 014°17'0 0.0
2014-Nov-12 13:17N 40°50' E 014°17'1 0.1
2014-Nov-11 12:08N 40°50' E 014°15'1 2.4
2014-Nov-11 11:32N 40°50' E 014°17'0 0.0
2014-Nov-11 10:31N 40°50' E 014°17'0 0.0
2014-Nov-11 09:33N 40°50' E 014°17'  
Track history (hours):
 
Tides and Currents Weather Stations Pressure Air Temp Water Temp Dewpoint Dewpoint Depression Visibility Wind Speed Wind Dir Waves Ship Positions

Marina Lobra

Last reported at 2014-Nov-21 09:33 UTC. Time now 2014-Nov-23 09:52 UTC.
Position N 40°50' E 014°16'.

Length 56 m; draft 2.4 m.

Type: Ship (hazmat cat C). MMSI: 247188300.

Date/timePositionNaut miles runAvg speedWind from/ knotsBaromVisibWave heightAir tempDewpointWater temp
2014-Nov-21 09:33N 40°50' E 014°16'0 0.0
2014-Nov-21 08:33N 40°50' E 014°16'0 0.1
2014-Nov-21 01:16N 40°51' E 014°16'1 0.2
2014-Nov-20 22:11N 40°50' E 014°17'1 0.0
2014-Nov-20 11:25N 40°50' E 014°17'0 0.0
2014-Nov-20 10:33N 40°50' E 014°17'0 0.0
2014-Nov-20 08:31N 40°50' E 014°17'0 0.1
2014-Nov-20 07:33N 40°50' E 014°17'1 0.0
2014-Nov-19 08:14N 40°50' E 014°16'4 5.3
2014-Nov-19 07:33N 40°47' E 014°19'5 5.5
2014-Nov-19 06:33N 40°41' E 014°18'6 5.5
2014-Nov-19 05:33N 40°36' E 014°16'3 0.6
2014-Nov-19 00:27N 40°33' E 014°14'0 0.0
2014-Nov-18 23:33N 40°33' E 014°14'0 0.0
2014-Nov-18 22:32N 40°33' E 014°14'0 0.0
2014-Nov-18 21:33N 40°33' E 014°14'0 0.0
2014-Nov-18 20:33N 40°33' E 014°14'2 2.3
2014-Nov-18 19:33N 40°36' E 014°15'5 4.7
2014-Nov-18 18:33N 40°40' E 014°16'5 5.2
2014-Nov-18 17:33N 40°45' E 014°17'5 4.8
2014-Nov-18 16:33N 40°50' E 014°17'0 0.0
2014-Nov-18 15:32N 40°50' E 014°17'0 0.0
2014-Nov-18 14:18N 40°50' E 014°17'0 0.0
2014-Nov-18 13:33N 40°50' E 014°17'0 0.0
2014-Nov-18 12:25N 40°50' E 014°17'0 0.0
2014-Nov-18 11:10N 40°50' E 014°17'1 0.0
2014-Nov-17 12:31N 40°50' E 014°16'1 0.8
2014-Nov-17 11:34N 40°50' E 014°17'0 0.0
2014-Nov-17 10:28N 40°50' E 014°17'0 0.0
2014-Nov-17 09:15N 40°50' E 014°17'0 0.0
2014-Nov-15 08:29N 40°50' E 014°17'0 0.4
2014-Nov-15 07:33N 40°50' E 014°18'0 0.0
2014-Nov-14 11:33N 40°50' E 014°17'0 0.0
2014-Nov-14 08:16N 40°50' E 014°17'1 1.5
2014-Nov-14 07:25N 40°51' E 014°16'0 0.1
2014-Nov-14 01:32N 40°50' E 014°16'0 0.2
2014-Nov-13 23:10N 40°50' E 014°17'1 0.1
2014-Nov-13 15:32N 40°50' E 014°17'0 0.0
2014-Nov-13 14:11N 40°50' E 014°17'0 0.0
2014-Nov-13 13:33N 40°50' E 014°17'0 0.0
2014-Nov-13 12:32N 40°50' E 014°17'0 0.0
2014-Nov-13 11:31N 40°50' E 014°17'0 0.0
2014-Nov-13 10:31N 40°50' E 014°17'0 0.0
2014-Nov-12 16:30N 40°50' E 014°17'0 0.4
2014-Nov-12 15:30N 40°50' E 014°17'0 0.0
2014-Nov-12 14:33N 40°50' E 014°17'0 0.0
2014-Nov-12 13:17N 40°50' E 014°17'1 0.1
2014-Nov-11 12:08N 40°50' E 014°15'1 2.4
2014-Nov-11 11:32N 40°50' E 014°17'0 0.0
2014-Nov-11 10:31N 40°50' E 014°17'0 0.0
2014-Nov-11 09:33N 40°50' E 014°17'  

Dump ship's entire track history